createdAt,value
2022-11-08T03:23:38.873Z,82.92
2022-11-08T03:26:06.174Z,82.86
2022-11-08T03:28:32.835Z,82.79
2022-11-08T03:30:59.648Z,82.63
2022-11-08T03:33:26.321Z,82.60
2022-11-08T03:35:53.754Z,82.93
2022-11-08T03:38:20.924Z,82.63
2022-11-08T03:40:47.743Z,82.54
2022-11-08T03:43:14.341Z,82.55
2022-11-08T03:45:41.227Z,82.56
2022-11-08T03:48:08.202Z,82.55
2022-11-08T03:50:35.029Z,82.59
2022-11-08T03:53:01.709Z,82.67
2022-11-08T03:55:28.481Z,82.76
2022-11-08T03:57:55.571Z,82.84
2022-11-08T04:00:25.567Z,82.88
2022-11-08T04:02:54.420Z,82.93
2022-11-08T04:05:20.938Z,83.02
2022-11-08T04:07:47.505Z,83.05
2022-11-08T04:10:14.430Z,83.21
2022-11-08T04:13:01.002Z,83.22
2022-11-08T04:15:29.248Z,83.18
2022-11-08T04:18:16.151Z,83.22
2022-11-08T04:21:04.435Z,83.19
2022-11-08T04:23:32.919Z,83.19
2022-11-08T04:26:01.646Z,83.17
2022-11-08T04:28:31.123Z,83.15
2022-11-08T04:31:02.471Z,83.17
2022-11-08T04:33:30.019Z,83.13
2022-11-08T04:36:07.270Z,83.15
2022-11-08T04:38:34.633Z,83.12
2022-11-08T04:41:06.940Z,83.18
2022-11-08T04:43:34.269Z,83.21
2022-11-08T04:46:06.140Z,83.34
2022-11-08T04:48:33.034Z,83.48
2022-11-08T04:51:05.214Z,83.50
2022-11-08T04:53:32.148Z,83.45
2022-11-08T04:56:07.643Z,83.49
2022-11-08T04:58:40.461Z,83.66
2022-11-08T05:01:09.740Z,83.90
2022-11-08T05:03:36.558Z,83.93
2022-11-08T05:06:06.996Z,84.00
2022-11-08T05:08:33.622Z,84.03
2022-11-08T05:11:02.029Z,84.14
2022-11-08T05:13:29.165Z,84.13
2022-11-08T05:16:00.744Z,84.23
2022-11-08T05:18:29.171Z,84.27
2022-11-08T05:21:16.135Z,84.31
2022-11-08T05:23:43.204Z,84.34
2022-11-08T05:26:10.535Z,84.63
2022-11-08T05:28:37.428Z,84.85
2022-11-08T05:31:04.163Z,84.82
2022-11-08T05:33:30.823Z,85.19
2022-11-08T05:36:05.843Z,85.54
2022-11-08T05:38:33.796Z,85.54
2022-11-08T05:41:06.038Z,85.32
2022-11-08T05:43:33.736Z,85.28
2022-11-08T05:46:00.463Z,85.30
2022-11-08T05:48:27.169Z,85.22
2022-11-08T05:50:54.211Z,85.07
2022-11-08T05:53:21.878Z,85.29
2022-11-08T05:55:49.213Z,85.31
2022-11-08T05:58:16.417Z,85.37
2022-11-08T06:00:46.064Z,85.33
2022-11-08T06:03:12.761Z,85.31
2022-11-08T06:05:39.346Z,85.63
2022-11-08T06:08:06.287Z,85.77
2022-11-08T06:10:32.854Z,85.96
2022-11-08T06:13:00.647Z,86.06
2022-11-08T06:15:27.544Z,86.11
2022-11-08T06:17:54.200Z,86.24
2022-11-08T06:20:20.786Z,86.44
2022-11-08T06:22:48.295Z,86.54
2022-11-08T06:25:14.881Z,86.55
2022-11-08T06:27:41.436Z,86.74
2022-11-08T06:30:08.801Z,86.73
2022-11-08T06:32:35.559Z,86.85
2022-11-08T06:35:02.106Z,86.89
2022-11-08T06:37:29.045Z,86.81
2022-11-08T06:39:55.699Z,86.70
2022-11-08T06:42:22.225Z,87.81
2022-11-08T06:44:49.106Z,86.71
2022-11-08T06:47:15.734Z,85.96
2022-11-08T06:49:42.469Z,85.52
2022-11-08T06:52:09.516Z,85.28
2022-11-08T06:54:36.070Z,85.17
2022-11-08T06:57:02.828Z,85.18
2022-11-08T06:59:30.325Z,85.24
2022-11-08T07:01:57.010Z,85.02
2022-11-08T07:04:23.803Z,84.78
2022-11-08T07:06:50.637Z,84.40
2022-11-08T07:09:17.326Z,84.42
2022-11-08T07:11:43.930Z,84.12
2022-11-08T07:14:11.103Z,83.80
2022-11-08T07:16:37.613Z,83.84
2022-11-08T07:19:04.224Z,83.46
2022-11-08T07:21:31.535Z,83.25
2022-11-08T07:23:58.151Z,83.04
2022-11-08T07:26:24.707Z,82.86
2022-11-08T07:28:51.689Z,82.88
2022-11-08T07:31:18.227Z,82.85
2022-11-08T07:33:44.905Z,82.29
2022-11-08T07:36:11.771Z,81.67
2022-11-08T07:38:38.381Z,81.75
2022-11-08T07:41:05.203Z,81.70
2022-11-08T07:43:34.545Z,81.41
2022-11-08T07:46:15.641Z,81.44
2022-11-08T07:48:42.767Z,80.59
2022-11-08T07:51:09.312Z,80.94
2022-11-08T07:53:35.929Z,81.11
2022-11-08T07:56:02.907Z,80.29
2022-11-08T07:58:29.744Z,79.38
2022-11-08T08:01:01.342Z,79.99
2022-11-08T08:03:28.239Z,79.13
2022-11-08T08:05:59.711Z,79.31
2022-11-08T08:08:28.867Z,78.75
2022-11-08T08:11:02.669Z,78.65
2022-11-08T08:13:30.380Z,77.86
2022-11-08T08:15:59.429Z,77.21
2022-11-08T08:18:27.099Z,77.35
2022-11-08T08:20:53.915Z,77.02
2022-11-08T08:23:20.806Z,76.82
2022-11-08T08:25:47.662Z,77.22
2022-11-08T08:28:14.384Z,77.50
2022-11-08T08:30:41.084Z,77.31
2022-11-08T08:33:27.922Z,75.85
2022-11-08T08:35:55.875Z,76.29
2022-11-08T08:38:22.678Z,76.91
2022-11-08T08:40:51.217Z,76.40
2022-11-08T08:43:18.792Z,74.42
2022-11-08T08:45:46.258Z,74.46
2022-11-08T08:48:12.811Z,73.59
2022-11-08T08:50:39.731Z,72.76
2022-11-08T08:53:06.477Z,74.10
2022-11-08T08:55:36.478Z,73.51
2022-11-08T08:58:03.316Z,72.87
2022-11-08T09:03:17.379Z,72.74
2022-11-08T09:05:46.167Z,73.23
2022-11-08T09:08:15.233Z,72.15
2022-11-08T09:10:42.065Z,72.41
2022-11-08T09:13:08.952Z,72.47
2022-11-08T09:15:35.627Z,72.49
2022-11-08T09:18:02.533Z,72.44
2022-11-08T09:20:29.205Z,73.25
2022-11-08T09:23:00.176Z,72.59
2022-11-08T09:25:26.907Z,71.26
2022-11-08T09:27:54.552Z,71.09
2022-11-08T09:30:21.117Z,71.29
2022-11-08T09:33:00.150Z,71.67
2022-11-08T09:35:28.755Z,71.30
2022-11-08T09:37:56.080Z,71.90
2022-11-08T09:40:42.548Z,71.34
2022-11-08T09:43:28.480Z,71.52
2022-11-08T09:45:56.908Z,70.36
2022-11-08T09:48:41.207Z,70.90
2022-11-08T09:51:16.138Z,71.32
2022-11-08T09:53:51.828Z,71.18
2022-11-08T09:56:24.518Z,70.80
2022-11-08T09:59:01.632Z,70.54
2022-11-08T10:01:36.256Z,70.99
2022-11-08T10:04:16.030Z,71.17
2022-11-08T10:07:07.278Z,70.79
2022-11-08T10:09:47.721Z,70.63
2022-11-08T10:12:40.069Z,69.71
2022-11-08T10:15:24.507Z,69.85
2022-11-08T10:18:29.341Z,69.45
2022-11-08T10:21:28.563Z,69.38
2022-11-08T10:24:03.320Z,69.86
2022-11-08T10:26:36.399Z,69.64
2022-11-08T10:29:17.394Z,69.22
2022-11-08T10:31:47.238Z,68.80
2022-11-08T10:34:24.284Z,68.90
2022-11-08T10:36:57.393Z,68.23
2022-11-08T10:39:32.074Z,68.21
2022-11-08T10:42:05.457Z,67.87
2022-11-08T10:44:33.352Z,67.95
2022-11-08T10:47:03.274Z,67.79
2022-11-08T10:49:38.018Z,68.69
2022-11-08T10:52:10.793Z,69.47
2022-11-08T10:54:59.463Z,69.65
2022-11-08T10:57:29.154Z,69.28
2022-11-08T10:59:57.161Z,67.99
2022-11-08T11:02:23.843Z,67.88
2022-11-08T11:04:51.681Z,67.86
2022-11-08T11:07:32.301Z,68.70
2022-11-08T11:10:27.001Z,67.93
2022-11-08T11:13:01.251Z,67.41
2022-11-08T11:15:57.945Z,67.69
2022-11-08T11:18:35.314Z,66.57
2022-11-08T11:21:16.129Z,66.07
2022-11-08T11:23:48.572Z,65.80
2022-11-08T11:26:31.385Z,66.42
2022-11-08T11:29:26.415Z,67.69
2022-11-08T11:31:54.405Z,67.77
2022-11-08T11:34:43.772Z,65.99
2022-11-08T11:37:18.565Z,66.54
2022-11-08T11:39:59.182Z,65.60
2022-11-08T11:42:50.028Z,64.62
2022-11-08T11:45:22.296Z,65.00
2022-11-08T11:47:53.843Z,64.53
2022-11-08T11:50:40.875Z,65.13
2022-11-08T11:53:24.305Z,63.98
2022-11-08T11:55:57.589Z,63.89
2022-11-08T11:58:58.418Z,63.73
2022-11-08T12:01:44.831Z,63.57
2022-11-08T12:04:29.793Z,63.25
2022-11-08T12:07:17.617Z,63.50
2022-11-08T12:09:50.498Z,63.75
2022-11-08T12:12:32.403Z,63.91
2022-11-08T12:15:20.543Z,64.26
2022-11-08T12:18:09.371Z,62.96
2022-11-08T12:20:54.479Z,62.12
2022-11-08T12:23:39.702Z,61.08
2022-11-08T12:26:06.404Z,61.81
2022-11-08T12:28:46.710Z,61.54
2022-11-08T12:31:20.435Z,61.75
2022-11-08T12:33:59.098Z,60.75
2022-11-08T12:36:29.072Z,61.26
2022-11-08T12:39:30.383Z,62.86
2022-11-08T12:42:14.099Z,61.41
2022-11-08T12:45:04.694Z,62.93
2022-11-08T12:47:55.611Z,62.55
2022-11-08T12:50:48.602Z,63.00
2022-11-08T12:53:54.272Z,63.07
2022-11-08T12:56:27.097Z,62.76
2022-11-08T12:58:54.830Z,63.93
2022-11-08T13:01:22.852Z,61.83
2022-11-08T13:04:15.136Z,61.86
2022-11-08T13:06:59.070Z,61.21
2022-11-08T13:09:50.978Z,61.72
2022-11-08T13:12:44.291Z,61.70
2022-11-08T13:15:20.846Z,61.77
2022-11-08T13:18:17.252Z,63.55
2022-11-08T13:20:46.486Z,63.64
2022-11-08T13:23:20.591Z,62.73
2022-11-08T13:25:47.726Z,63.82
2022-11-08T13:28:43.764Z,62.70
2022-11-08T13:31:19.506Z,63.13
2022-11-08T13:33:58.229Z,64.60
2022-11-08T13:36:35.888Z,64.65
2022-11-08T13:39:40.227Z,64.72
2022-11-08T13:42:16.581Z,63.93
2022-11-08T13:44:55.057Z,63.55
2022-11-08T13:47:34.453Z,64.37
2022-11-08T13:50:33.121Z,62.80
2022-11-08T13:53:10.806Z,63.81
2022-11-08T13:55:43.193Z,64.17
2022-11-08T13:58:45.578Z,63.80
2022-11-08T14:01:18.878Z,63.70
2022-11-08T14:03:45.795Z,61.20
2022-11-08T14:06:15.906Z,60.40
2022-11-08T14:08:57.584Z,57.81
2022-11-08T14:11:27.468Z,55.67
2022-11-08T14:14:12.054Z,54.63
2022-11-08T14:16:56.903Z,56.00
2022-11-08T14:19:25.936Z,55.67
2022-11-08T14:21:55.584Z,56.92
2022-11-08T14:24:26.966Z,57.95
2022-11-08T14:26:53.903Z,58.70
2022-11-08T14:29:23.845Z,59.65
2022-11-08T14:32:16.584Z,60.00
2022-11-08T14:34:44.480Z,61.21
2022-11-08T14:37:21.511Z,61.95
2022-11-08T14:39:50.033Z,62.95
2022-11-08T14:42:26.073Z,63.63
2022-11-08T14:44:55.712Z,64.02
2022-11-08T14:47:30.864Z,64.22
2022-11-08T14:49:58.791Z,64.91
2022-11-08T14:52:32.425Z,65.32
2022-11-08T14:55:08.255Z,65.76
2022-11-08T14:57:43.109Z,66.17
2022-11-08T15:00:13.650Z,66.54
2022-11-08T15:02:44.071Z,67.04
2022-11-08T15:05:29.918Z,67.26
2022-11-08T15:07:59.163Z,67.49
2022-11-08T15:10:26.940Z,67.57
2022-11-08T15:12:54.008Z,68.05
2022-11-08T15:15:28.666Z,68.03
2022-11-08T15:18:12.940Z,68.33
2022-11-08T15:20:51.846Z,68.81
2022-11-08T15:23:43.530Z,68.89
2022-11-08T15:26:22.562Z,69.09
2022-11-08T15:28:59.619Z,69.15
2022-11-08T15:31:29.872Z,69.36
2022-11-08T15:33:56.928Z,70.14
2022-11-08T15:36:34.916Z,70.16
2022-11-08T15:39:03.773Z,70.23
2022-11-08T15:41:39.988Z,70.38
2022-11-08T15:44:21.664Z,70.73
2022-11-08T15:46:49.250Z,71.18
2022-11-08T15:49:27.770Z,71.37
2022-11-08T15:51:58.108Z,71.63
2022-11-08T15:54:26.340Z,71.91
2022-11-08T15:56:55.260Z,72.12
2022-11-08T15:59:29.160Z,72.57
2022-11-08T16:01:58.272Z,73.22
2022-11-08T16:04:27.252Z,73.00
2022-11-08T16:06:54.177Z,73.27
2022-11-08T16:09:21.063Z,73.39
2022-11-08T16:11:48.829Z,73.79
2022-11-08T16:14:22.058Z,73.74
2022-11-08T16:16:49.460Z,73.95
2022-11-08T16:19:22.935Z,74.15
2022-11-08T16:21:51.316Z,74.87
2022-11-08T16:24:18.255Z,74.92
2022-11-08T16:26:46.406Z,74.92
2022-11-08T16:29:19.019Z,76.10
2022-11-08T16:31:45.829Z,76.32
2022-11-08T16:34:12.615Z,76.55
2022-11-08T16:36:39.239Z,76.29
2022-11-08T16:39:06.512Z,77.65
2022-11-08T16:41:35.038Z,75.65
2022-11-08T16:44:04.717Z,75.10
2022-11-08T16:46:31.467Z,74.46
2022-11-08T16:48:58.822Z,73.33
2022-11-08T16:51:25.957Z,73.32
2022-11-08T16:53:53.432Z,73.62
2022-11-08T16:56:20.195Z,73.66
2022-11-08T16:58:46.887Z,73.77
2022-11-08T17:01:18.721Z,73.70
2022-11-08T17:03:45.549Z,74.11
2022-11-08T17:06:18.017Z,73.99
2022-11-08T17:08:45.787Z,74.25
2022-11-08T17:11:22.141Z,74.23
2022-11-08T17:13:50.214Z,74.36
2022-11-08T17:16:18.091Z,74.81
2022-11-08T17:18:48.572Z,75.27
2022-11-08T17:24:05.602Z,75.30
2022-11-08T17:26:32.325Z,75.54
2022-11-08T17:28:58.868Z,75.82
2022-11-08T17:31:25.653Z,76.20
2022-11-08T17:33:54.549Z,76.37
2022-11-08T17:36:21.181Z,76.85
2022-11-08T17:38:48.007Z,77.34
2022-11-08T17:41:15.316Z,77.88
2022-11-08T17:43:42.756Z,78.05
2022-11-08T17:46:10.731Z,78.20
2022-11-08T17:48:39.213Z,78.60
2022-11-08T17:51:08.905Z,79.00
2022-11-08T17:53:36.872Z,79.15
2022-11-08T17:56:05.383Z,79.76
2022-11-08T17:58:33.401Z,79.89
2022-11-08T18:01:02.736Z,79.81
2022-11-08T18:03:30.055Z,80.00
2022-11-08T18:05:58.642Z,80.14
2022-11-08T18:08:27.573Z,80.25
2022-11-08T18:10:54.865Z,80.15
2022-11-08T18:13:23.531Z,80.83
2022-11-08T18:15:51.491Z,81.54
2022-11-08T18:18:19.142Z,81.76
2022-11-08T18:20:53.422Z,81.64
2022-11-08T18:23:20.809Z,81.48
2022-11-08T18:25:49.095Z,81.63
2022-11-08T18:28:16.916Z,82.22
2022-11-08T18:30:47.987Z,82.41
2022-11-08T18:33:20.222Z,82.53
2022-11-08T18:35:47.281Z,82.29
2022-11-08T18:38:13.984Z,82.02
2022-11-08T18:40:44.917Z,82.16
2022-11-08T18:43:11.839Z,82.30
2022-11-08T18:45:38.639Z,82.28
2022-11-08T18:48:05.848Z,82.45
2022-11-08T18:50:32.718Z,82.38
2022-11-08T18:53:03.755Z,82.24
2022-11-08T18:55:31.499Z,82.38
2022-11-08T18:57:58.226Z,81.97
2022-11-08T19:00:24.955Z,82.14
2022-11-08T19:02:51.681Z,82.15
2022-11-08T19:05:18.374Z,82.34
2022-11-08T19:07:45.711Z,82.29
2022-11-08T19:10:12.599Z,82.55
2022-11-08T19:12:39.365Z,82.62
2022-11-08T19:15:06.466Z,82.57
2022-11-08T19:17:34.798Z,82.69
2022-11-08T19:20:04.374Z,82.49
2022-11-08T19:22:31.445Z,82.17
2022-11-08T19:24:58.180Z,82.47
2022-11-08T19:27:24.984Z,82.52
2022-11-08T19:29:51.595Z,82.49
2022-11-08T19:32:18.364Z,82.52
2022-11-08T19:34:46.461Z,82.57
2022-11-08T19:37:13.266Z,82.40
2022-11-08T19:39:40.139Z,82.39
2022-11-08T19:42:06.833Z,82.16
2022-11-08T19:44:33.977Z,82.04
2022-11-08T19:47:02.417Z,81.75
2022-11-08T19:49:30.422Z,81.90
2022-11-08T19:51:57.806Z,81.89
2022-11-08T19:54:25.429Z,81.95
2022-11-08T19:57:08.235Z,81.97
2022-11-08T19:59:36.990Z,81.75
2022-11-08T20:02:04.598Z,81.82
2022-11-08T20:04:33.472Z,81.88
2022-11-08T20:07:01.128Z,81.81
2022-11-08T20:09:30.974Z,81.82
2022-11-08T20:11:58.624Z,81.81
2022-11-08T20:14:26.602Z,81.80
2022-11-08T20:16:55.179Z,81.78
2022-11-08T20:19:22.081Z,81.86
2022-11-08T20:21:49.567Z,81.78
2022-11-08T20:24:21.048Z,81.80
2022-11-08T20:26:48.120Z,81.64
2022-11-08T20:29:15.830Z,81.71
2022-11-08T20:31:42.855Z,81.76
2022-11-08T20:34:12.093Z,81.86
2022-11-08T20:36:40.526Z,81.85
2022-11-08T20:39:08.098Z,81.91
2022-11-08T20:41:36.527Z,82.01
2022-11-08T20:44:03.463Z,81.97
2022-11-08T20:46:31.798Z,81.90
2022-11-08T20:49:01.777Z,81.94
2022-11-08T20:51:30.196Z,82.00
2022-11-08T20:53:58.870Z,81.85
2022-11-08T20:56:26.742Z,81.69
2022-11-08T20:58:53.780Z,81.83
2022-11-08T21:01:23.645Z,81.95
2022-11-08T21:03:51.777Z,81.85
2022-11-08T21:06:21.864Z,81.60
2022-11-08T21:08:59.014Z,81.67
2022-11-08T21:11:29.723Z,81.72
2022-11-08T21:13:57.007Z,81.61
2022-11-08T21:16:38.298Z,81.63
2022-11-08T21:19:10.902Z,81.45
2022-11-08T21:21:37.984Z,81.51
2022-11-08T21:24:05.900Z,81.48
2022-11-08T21:26:36.224Z,81.49
2022-11-08T21:29:04.820Z,81.59
2022-11-08T21:31:32.589Z,81.51
2022-11-08T21:33:59.990Z,81.58
2022-11-08T21:36:28.385Z,81.68
2022-11-08T21:38:55.215Z,81.76
2022-11-08T21:41:22.537Z,81.80
2022-11-08T21:43:49.271Z,81.80
2022-11-08T21:46:25.233Z,81.83
2022-11-08T21:48:57.400Z,81.75
2022-11-08T21:51:25.163Z,81.84
2022-11-08T21:53:55.275Z,81.92
2022-11-08T21:56:24.024Z,82.03
2022-11-08T21:58:51.240Z,81.93
2022-11-08T22:01:18.196Z,82.11
2022-11-08T22:03:46.061Z,82.26
2022-11-08T22:06:13.229Z,82.33
2022-11-08T22:08:40.037Z,82.29
2022-11-08T22:11:06.706Z,82.32
2022-11-08T22:13:33.598Z,82.40
2022-11-08T22:16:00.659Z,82.59
2022-11-08T22:18:43.297Z,82.69
2022-11-08T22:21:32.693Z,82.66
2022-11-08T22:23:59.352Z,82.80
2022-11-08T22:26:26.075Z,82.72
2022-11-08T22:28:52.751Z,82.90
2022-11-08T22:31:19.480Z,82.95
2022-11-08T22:33:46.130Z,83.00
2022-11-08T22:36:12.911Z,82.98
2022-11-08T22:38:39.612Z,83.15
2022-11-08T22:41:06.513Z,82.98
2022-11-08T22:43:35.420Z,83.28
2022-11-08T22:46:02.605Z,83.36
2022-11-08T22:48:29.305Z,83.49
2022-11-08T22:50:57.004Z,83.58
2022-11-08T22:53:26.094Z,83.67
2022-11-08T22:55:52.980Z,83.56
2022-11-08T22:58:19.730Z,83.61
2022-11-08T23:00:46.415Z,83.72
2022-11-08T23:03:13.112Z,83.79
2022-11-08T23:05:39.846Z,83.90
2022-11-08T23:08:06.617Z,83.81
2022-11-08T23:10:53.646Z,83.63
2022-11-08T23:13:39.063Z,83.54
2022-11-08T23:16:26.100Z,83.49
2022-11-08T23:19:11.401Z,83.63
2022-11-08T23:21:56.815Z,83.77
2022-11-08T23:24:23.488Z,83.90
2022-11-08T23:27:09.006Z,83.71
2022-11-08T23:29:54.273Z,83.54
2022-11-08T23:32:20.991Z,83.37
2022-11-08T23:34:47.659Z,83.57
2022-11-08T23:37:14.148Z,83.65
2022-11-08T23:39:59.457Z,83.48
2022-11-08T23:42:45.095Z,83.48
2022-11-08T23:45:11.693Z,83.61
2022-11-08T23:47:38.350Z,83.65
2022-11-08T23:50:05.808Z,84.04
2022-11-08T23:52:33.150Z,83.89
2022-11-08T23:54:59.635Z,84.08
2022-11-08T23:57:26.260Z,84.34
2022-11-08T23:59:52.826Z,84.58
